Time;durP1;ratioP1;P1;durP2;ratioP2;P2;SDS_P1;SDS_P2;PMS_P1;PMS_P2;Temp;Humidity;BMP_temperature;BMP_pressure;BME280_temperature;BME280_humidity;BME280_pressure;Samples;Min_cycle;Max_cycle;Signal;HPM_P1;HPM_P2
2022/04/06 00:02:11;;;;;;;11.18;2.85;;;10.10;99.90;;;;;;20793424;28;20564;-45
2022/04/06 00:12:12;;;;;;;5.60;1.98;;;10.10;99.90;;;;;;20796750;28;20033;-45
2022/04/06 00:22:14;;;;;;;13.13;2.30;;;10.10;99.90;;;;;;20795939;28;20060;-45
2022/04/06 00:32:16;;;;;;;14.88;2.80;;;10.10;99.90;;;;;;20794524;28;20065;-45
2022/04/06 00:42:18;;;;;;;11.30;2.30;;;10.10;99.90;;;;;;20791097;28;20049;-45
2022/04/06 00:52:20;;;;;;;4.95;1.98;;;10.10;99.90;;;;;;20786184;28;20045;-45
2022/04/06 01:02:21;;;;;;;10.38;2.67;;;10.00;99.90;;;;;;20788561;28;20307;-45
2022/04/06 01:12:24;;;;;;;6.18;1.98;;;10.10;99.90;;;;;;20790084;28;20050;-45
2022/04/06 01:22:26;;;;;;;10.13;1.65;;;10.10;99.90;;;;;;20794218;28;20049;-45
2022/04/06 01:32:35;;;;;;;8.75;1.80;;;10.20;99.90;;;;;;20792369;28;20041;-45
2022/04/06 01:42:36;;;;;;;4.78;1.73;;;10.10;99.90;;;;;;20798156;28;20041;-45
2022/04/06 01:52:37;;;;;;;9.88;2.30;;;10.20;99.90;;;;;;20794635;28;20073;-45
2022/04/06 02:02:38;;;;;;;12.88;1.80;;;10.20;99.90;;;;;;20795881;28;20516;-45
2022/04/06 02:12:40;;;;;;;2.65;1.05;;;10.20;99.90;;;;;;20797687;28;20320;-45
2022/04/06 02:22:42;;;;;;;3.30;1.13;;;10.10;99.90;;;;;;20789942;28;20627;-45
2022/04/06 02:32:43;;;;;;;10.20;1.58;;;10.20;99.90;;;;;;20795014;28;20045;-45
2022/04/06 02:42:44;;;;;;;5.28;2.08;;;10.00;99.90;;;;;;20794464;28;20041;-45
2022/04/06 02:52:47;;;;;;;6.93;1.10;;;10.10;99.90;;;;;;20795362;28;20033;-45
2022/04/06 03:02:50;;;;;;;3.97;1.27;;;9.90;99.90;;;;;;20798085;28;20053;-45
2022/04/06 03:12:52;;;;;;;4.93;0.90;;;9.90;99.90;;;;;;20798814;28;20505;-45
2022/04/06 03:22:53;;;;;;;2.08;0.95;;;9.90;99.90;;;;;;20797737;28;20489;-46
2022/04/06 03:32:54;;;;;;;6.63;0.98;;;9.90;99.90;;;;;;20787827;28;20413;-45
2022/04/06 03:42:56;;;;;;;3.40;0.80;;;10.00;99.90;;;;;;20785318;28;20049;-45
2022/04/06 03:52:57;;;;;;;5.60;0.93;;;9.90;99.90;;;;;;20765777;28;20045;-45
2022/04/06 04:02:58;;;;;;;5.78;0.60;;;9.90;99.90;;;;;;20780757;28;20510;-45
2022/04/06 04:12:59;;;;;;;2.42;0.60;;;9.80;99.90;;;;;;20784384;28;20053;-45
2022/04/06 04:23:00;;;;;;;5.57;0.63;;;9.70;99.90;;;;;;20778247;28;20041;-45
2022/04/06 04:33:01;;;;;;;2.92;1.23;;;9.60;99.90;;;;;;20795362;28;20057;-44
2022/04/06 04:43:03;;;;;;;3.15;0.80;;;9.70;99.90;;;;;;20805032;28;20077;-44
2022/04/06 04:53:05;;;;;;;2.78;0.73;;;9.50;99.90;;;;;;20798726;28;20606;-44
2022/04/06 05:03:08;;;;;;;12.98;0.90;;;9.60;99.90;;;;;;20798554;28;20049;-45
2022/04/06 05:13:09;;;;;;;8.13;1.20;;;9.60;99.90;;;;;;20806872;28;20041;-46
2022/04/06 05:23:10;;;;;;;2.47;0.90;;;9.60;99.90;;;;;;20803348;28;20049;-45
2022/04/06 05:33:12;;;;;;;1.60;0.65;;;9.60;99.90;;;;;;20806287;28;20052;-44
2022/04/06 05:43:13;;;;;;;3.78;0.82;;;9.60;99.90;;;;;;20803587;28;20048;-44
2022/04/06 05:53:14;;;;;;;8.60;0.95;;;9.70;99.90;;;;;;20801223;28;20038;-45
2022/04/06 06:03:16;;;;;;;10.77;1.10;;;9.70;99.90;;;;;;20803328;28;20466;-45
2022/04/06 06:13:17;;;;;;;4.25;0.80;;;9.70;99.90;;;;;;20802154;28;20037;-45
2022/04/06 06:23:18;;;;;;;2.80;0.63;;;9.80;99.90;;;;;;20796352;28;20046;-45
2022/04/06 06:33:19;;;;;;;3.92;0.50;;;9.80;99.90;;;;;;20797794;28;20056;-45
2022/04/06 06:43:20;;;;;;;3.30;0.80;;;9.90;99.90;;;;;;20799177;28;20048;-45
2022/04/06 06:53:21;;;;;;;3.30;0.60;;;10.00;99.90;;;;;;20792731;28;20048;-45
2022/04/06 07:03:22;;;;;;;5.40;0.75;;;10.10;99.90;;;;;;20788948;28;20045;-45
2022/04/06 07:13:23;;;;;;;1.15;0.40;;;10.10;99.90;;;;;;20798555;28;20337;-45
2022/04/06 07:23:24;;;;;;;5.40;0.90;;;10.20;99.90;;;;;;20812280;28;20048;-45
2022/04/06 07:33:26;;;;;;;2.53;0.60;;;10.00;99.90;;;;;;20811586;28;20045;-45
2022/04/06 07:43:27;;;;;;;2.97;0.57;;;9.90;99.90;;;;;;20804891;28;20037;-45
2022/04/06 07:53:28;;;;;;;2.72;0.75;;;9.60;99.90;;;;;;20816410;28;20047;-45
2022/04/06 08:03:30;;;;;;;6.13;0.80;;;9.50;99.90;;;;;;20819455;28;20095;-44
2022/04/06 08:13:34;;;;;;;7.47;1.38;;;9.40;99.90;;;;;;20832767;28;20037;-44
2022/04/06 08:23:54;;;;;;;6.13;1.02;;;9.20;99.90;;;;;;20831169;28;20501;-44
2022/04/06 08:33:55;;;;;;;9.88;1.55;;;9.30;99.90;;;;;;20817866;28;20051;-44
2022/04/06 08:43:56;;;;;;;3.90;1.75;;;9.30;99.90;;;;;;20828663;28;20041;-45
2022/04/06 08:53:58;;;;;;;5.28;1.38;;;9.30;99.90;;;;;;20820483;28;20495;-44
2022/04/06 09:04:00;;;;;;;3.90;1.55;;;9.40;99.90;;;;;;20824459;28;20052;-45
2022/04/06 09:14:02;;;;;;;10.90;2.58;;;9.30;99.90;;;;;;20818286;28;20543;-44
2022/04/06 09:24:03;;;;;;;3.83;1.98;;;9.40;99.90;;;;;;20817683;28;20052;-45
2022/04/06 09:34:04;;;;;;;6.20;1.73;;;9.50;99.90;;;;;;20817921;28;20064;-44
2022/04/06 09:47:38;;;;;;;6.57;2.97;;;9.40;99.90;;;;;;20797390;28;20056;-44
2022/04/06 09:54:32;;;;;;;6.57;2.30;;;9.50;99.90;;;;;;20809771;28;20040;-44
2022/04/06 10:04:34;;;;;;;11.73;2.30;;;9.60;99.90;;;;;;20814620;28;20136;-45
2022/04/06 10:14:35;;;;;;;8.05;2.42;;;9.90;99.90;;;;;;20811216;28;20043;-45
2022/04/06 10:24:51;;;;;;;6.97;2.63;;;10.10;99.90;;;;;;20824926;28;20045;-45
2022/04/06 10:35:33;;;;;;;13.85;2.40;;;10.50;99.90;;;;;;20824168;28;20428;-45
2022/04/06 10:45:35;;;;;;;9.98;2.30;;;10.80;99.90;;;;;;20828470;28;20041;-45
2022/04/06 10:55:39;;;;;;;10.32;2.30;;;10.70;99.90;;;;;;20821167;28;20140;-46
2022/04/06 11:05:50;;;;;;;6.57;2.22;;;10.70;99.90;;;;;;20806734;28;21496;-45
2022/04/06 11:15:52;;;;;;;4.13;1.50;;;10.80;99.90;;;;;;20815816;28;20044;-46
2022/04/06 11:25:53;;;;;;;4.47;1.20;;;10.90;99.90;;;;;;20813749;28;20128;-45
2022/04/06 11:35:55;;;;;;;9.35;1.83;;;11.00;99.90;;;;;;20814603;28;20056;-46
2022/04/06 11:45:58;;;;;;;4.30;1.00;;;11.20;99.90;;;;;;20832445;28;20048;-46
2022/04/06 11:56:01;;;;;;;5.10;1.83;;;11.00;99.90;;;;;;20820035;28;20400;-45
2022/04/06 12:06:04;;;;;;;2.40;1.10;;;10.80;99.90;;;;;;20805705;28;20499;-45
2022/04/06 12:16:05;;;;;;;6.47;1.70;;;10.40;99.90;;;;;;20822999;28;20043;-45
2022/04/06 12:26:11;;;;;;;3.78;1.42;;;10.40;99.90;;;;;;20810952;28;20073;-45
2022/04/06 12:36:22;;;;;;;4.35;1.23;;;10.50;99.90;;;;;;20799101;28;20064;-45
2022/04/06 12:46:41;;;;;;;3.33;1.02;;;10.40;99.90;;;;;;20778897;28;20037;-45
2022/04/06 12:57:02;;;;;;;2.88;1.50;;;10.20;99.90;;;;;;20797938;28;20048;-45
2022/04/06 13:07:04;;;;;;;3.00;1.00;;;10.20;99.90;;;;;;20790086;28;20810;-45
2022/04/06 13:17:05;;;;;;;4.18;1.00;;;10.10;99.90;;;;;;20794282;28;20041;-45
2022/04/06 13:27:07;;;;;;;5.68;1.00;;;10.10;99.90;;;;;;20793087;28;20049;-45
2022/04/06 13:37:09;;;;;;;4.53;1.75;;;10.20;99.90;;;;;;20793384;28;20045;-45
2022/04/06 13:47:11;;;;;;;2.05;1.02;;;10.20;99.90;;;;;;20788284;28;20050;-45
2022/04/06 13:57:12;;;;;;;2.65;1.40;;;10.30;99.90;;;;;;20782139;28;20448;-45
2022/04/06 14:07:13;;;;;;;4.32;1.70;;;10.20;99.90;;;;;;20784075;28;20049;-46
2022/04/06 14:17:15;;;;;;;3.78;2.65;;;10.00;99.90;;;;;;20791284;28;20048;-46
2022/04/06 14:27:16;;;;;;;2.58;1.42;;;10.10;99.90;;;;;;20802585;28;20063;-46
2022/04/06 14:37:17;;;;;;;7.78;2.20;;;10.30;99.90;;;;;;20802785;28;20412;-46
2022/04/06 14:47:18;;;;;;;2.75;1.17;;;10.30;99.90;;;;;;20801387;28;20041;-45
2022/04/06 14:57:19;;;;;;;1.85;0.52;;;10.30;99.90;;;;;;20801661;28;20604;-47
2022/04/06 15:07:21;;;;;;;3.90;0.60;;;10.00;99.90;;;;;;20808827;28;20301;-46
2022/04/06 15:17:22;;;;;;;2.05;0.60;;;10.00;99.90;;;;;;20801854;28;20041;-46
2022/04/06 15:27:23;;;;;;;2.05;0.65;;;10.00;99.90;;;;;;20797138;28;20041;-46
2022/04/06 15:37:26;;;;;;;1.90;0.45;;;10.10;99.90;;;;;;20801703;28;20080;-46
2022/04/06 15:47:28;;;;;;;1.08;0.50;;;10.00;99.90;;;;;;20807589;28;20042;-45
2022/04/06 15:57:29;;;;;;;1.75;0.52;;;10.10;99.90;;;;;;20805991;28;20041;-45
2022/04/06 16:07:31;;;;;;;2.40;0.85;;;10.00;99.90;;;;;;20802388;28;20043;-45
2022/04/06 16:17:33;;;;;;;4.95;1.13;;;10.00;99.90;;;;;;20779978;28;20552;-45
2022/04/06 16:27:34;;;;;;;3.35;1.10;;;10.00;99.90;;;;;;20809315;28;20516;-46
2022/04/06 16:37:35;;;;;;;3.63;1.25;;;10.10;99.90;;;;;;20824971;28;20136;-45
2022/04/06 16:47:37;;;;;;;4.35;1.30;;;10.30;99.90;;;;;;20828696;28;20061;-46
2022/04/06 16:57:38;;;;;;;1.70;0.65;;;10.40;99.90;;;;;;20805977;28;20063;-45
2022/04/06 17:07:43;;;;;;;2.38;0.70;;;10.50;99.90;;;;;;20793597;28;20749;-45
2022/04/06 17:17:44;;;;;;;2.45;1.27;;;10.50;99.90;;;;;;20780486;28;20045;-46
2022/04/06 17:27:46;;;;;;;3.15;1.60;;;10.30;99.90;;;;;;20790327;28;20041;-47
2022/04/06 17:37:47;;;;;;;2.90;1.90;;;10.10;99.90;;;;;;20791403;28;20045;-46
2022/04/06 17:47:49;;;;;;;3.92;1.88;;;10.00;99.90;;;;;;20802679;28;20110;-45
2022/04/06 17:57:52;;;;;;;4.30;1.88;;;10.10;99.90;;;;;;20760752;28;20771;-45
2022/04/06 18:07:53;;;;;;;3.70;1.52;;;10.10;99.90;;;;;;20796260;28;20049;-45
2022/04/06 18:17:54;;;;;;;5.25;1.70;;;10.20;99.90;;;;;;20775454;28;20568;-45
2022/04/06 18:27:55;;;;;;;3.42;1.90;;;10.20;99.90;;;;;;20748314;28;20056;-46
2022/04/06 18:37:56;;;;;;;5.38;2.03;;;10.20;99.90;;;;;;20797852;28;20567;-45
2022/04/06 18:47:57;;;;;;;3.45;1.58;;;10.30;99.90;;;;;;20787118;28;20072;-45
2022/04/06 18:57:58;;;;;;;2.50;0.90;;;10.40;99.90;;;;;;20793033;28;20048;-45
2022/04/06 19:08:02;;;;;;;2.38;1.08;;;10.60;99.90;;;;;;20790512;28;20041;-45
2022/04/06 19:18:03;;;;;;;3.38;1.55;;;10.30;99.90;;;;;;20792190;28;20423;-45
2022/04/06 19:28:06;;;;;;;3.13;1.67;;;10.20;99.90;;;;;;20794891;28;20049;-45
2022/04/06 19:38:08;;;;;;;8.57;2.45;;;10.20;99.90;;;;;;20788870;28;20596;-45
2022/04/06 19:48:09;;;;;;;3.97;1.70;;;10.20;99.90;;;;;;20786439;28;20079;-46
2022/04/06 19:58:10;;;;;;;5.07;1.40;;;10.20;99.90;;;;;;20793819;28;20116;-45
2022/04/06 20:08:11;;;;;;;4.10;1.17;;;10.20;99.90;;;;;;20794989;28;20049;-45
2022/04/06 20:18:13;;;;;;;5.43;1.60;;;10.30;99.90;;;;;;20796338;28;20053;-45
2022/04/06 20:28:15;;;;;;;5.05;1.73;;;10.30;99.90;;;;;;20802088;28;20052;-45
2022/04/06 20:38:16;;;;;;;2.95;1.55;;;10.40;99.90;;;;;;20803409;28;20049;-45
2022/04/06 20:48:19;;;;;;;3.60;2.33;;;10.20;99.90;;;;;;20810760;28;20053;-45
2022/04/06 20:58:20;;;;;;;7.53;2.42;;;10.20;99.90;;;;;;20794821;28;20037;-45
2022/04/06 21:08:22;;;;;;;3.22;1.77;;;9.80;99.90;;;;;;20786903;28;20049;-46
2022/04/06 21:18:23;;;;;;;2.28;1.15;;;9.60;99.90;;;;;;20788270;28;20034;-45
2022/04/06 21:28:25;;;;;;;2.53;1.15;;;9.60;99.90;;;;;;20790478;28;20045;-46
2022/04/06 21:38:27;;;;;;;2.20;0.75;;;9.60;99.90;;;;;;20736461;28;20053;-46
2022/04/06 21:48:28;;;;;;;3.28;1.33;;;9.70;99.90;;;;;;20704526;28;20050;-45
2022/04/06 21:58:29;;;;;;;2.92;0.80;;;9.90;99.90;;;;;;20713061;28;20057;-45
2022/04/06 22:08:31;;;;;;;2.65;0.75;;;9.90;99.90;;;;;;20724342;28;20034;-46
2022/04/06 22:18:32;;;;;;;2.95;0.70;;;9.90;99.90;;;;;;20717596;28;20034;-45
2022/04/06 22:28:33;;;;;;;1.75;1.08;;;10.10;99.90;;;;;;20714078;28;20096;-45
2022/04/06 22:38:35;;;;;;;1.05;0.43;;;10.20;99.90;;;;;;20756166;28;20073;-46
2022/04/06 22:48:36;;;;;;;2.63;0.75;;;10.10;99.90;;;;;;20779829;28;20045;-45
2022/04/06 22:58:37;;;;;;;2.88;0.65;;;10.20;99.90;;;;;;20787486;28;20531;-45
2022/04/06 23:08:38;;;;;;;5.50;0.80;;;10.30;99.90;;;;;;20782905;28;20137;-45
2022/04/06 23:18:39;;;;;;;3.00;1.08;;;10.30;99.90;;;;;;20788919;28;20037;-46
2022/04/06 23:28:40;;;;;;;4.13;1.00;;;10.20;99.90;;;;;;20787515;28;20053;-45
2022/04/06 23:38:41;;;;;;;3.85;1.17;;;10.10;99.90;;;;;;20812301;28;20053;-45
2022/04/06 23:48:42;;;;;;;8.25;1.85;;;10.10;99.90;;;;;;20811791;28;20053;-45
2022/04/06 23:58:43;;;;;;;2.40;0.82;;;10.10;99.90;;;;;;20811431;28;20666;-45
